Latest Weather Observations for Warwick

IDQ60801

Issued at 3:35 pm EST Thursday 18 September 2014 (issued every 30 minutes, with the page automatically refreshed every 10 minutes)

About weather observations | Map of weather stations | Latest weather observations for QLD | Other Formats
Station Details ID: 041525 Name: WARWICK Lat: -28.21 Lon: 152.10 Height: 475.4 m
Data from the previous 72 hours. | See also: Recent months at Warwick
Date/Time
EST
Temp
°C
App
Temp
°C
Dew
Point
Rel
Hum
%
Delta-T
°C
Wind Press
QNH
hPa
Press
MSL
hPa
Rain
since 9 am
mm
Dir
 
Spd
km/h
Gust
km/h
Spd
kts
Gust
kts
18/03:30pm 22.1 13.8 -8.8 12 12.0 WSW 28 32 15 17 1016.4 1015.5 0.0
18/03:00pm 22.4 16.0 -7.2 13 11.9 WSW 19 30 10 16 1016.4 1015.5 0.0
18/02:30pm 22.1 15.8 -5.9 15 11.5 WSW 19 26 10 14 1016.5 1015.6 0.0
18/02:00pm 22.0 15.5 -5.6 15 11.4 WSW 20 35 11 19 1016.6 1015.7 0.0
18/01:30pm 21.3 15.5 -4.4 17 10.8 WSW 17 32 9 17 1017.0 1016.1 0.0
18/01:00pm 22.0 14.4 -9.8 11 12.1 SSW 24 33 13 18 1017.5 1016.5 0.0
18/12:30pm 20.8 14.7 -3.8 19 10.4 WSW 19 32 10 17 1017.8 1016.8 0.0
18/12:00pm 20.9 15.0 -2.3 21 10.1 WSW 19 26 10 14 1018.4 1017.5 0.0
18/11:30am 20.1 13.7 -4.6 18 10.2 WSW 20 32 11 17 1018.9 1018.0 0.0
18/11:00am 19.6 13.4 -3.5 20 9.7 WSW 20 32 11 17 1019.3 1018.4 0.0
18/10:30am 19.4 11.5 -4.4 19 9.8 WSW 28 43 15 23 1019.8 1018.9 0.0
18/10:00am 18.3 10.4 -4.7 20 9.3 SW 28 41 15 22 1020.1 1019.2 0.0
18/09:30am 18.4 9.9 -3.1 23 9.0 WSW 32 43 17 23 1020.3 1019.4 0.0
18/09:21am 18.1 9.6 -3.7 22 9.0 SW 32 41 17 22 1020.2 1019.3 0.0
18/09:00am 17.2 13.1 -0.4 30 7.7 SW 11 19 6 10 1020.5 1019.6 0.0
18/08:30am 15.5 13.6 0.8 37 6.5 CALM 0 6 0 3 1020.5 1019.6 0.0
18/08:00am 12.0 10.2 3.4 55 3.9 ENE 2 9 1 5 1020.5 1019.6 0.0
18/07:30am 8.1 5.2 1.7 64 2.7 WSW 6 9 3 5 1020.5 1019.6 0.0
18/07:00am 6.5 4.8 1.9 72 1.9 CALM 0 6 0 3 1020.1 1019.2 0.0
18/06:30am 4.0 1.9 1.5 84 1.0 ENE 2 7 1 4 1019.8 1018.9 0.0
18/06:00am 3.0 1.0 0.1 81 1.1 CALM 0 0 0 0 1019.5 1018.5 0.0
18/05:30am 4.4 2.5 0.6 76 1.5 CALM 0 0 0 0 1019.0 1018.1 0.0
18/05:00am 3.5 1.7 1.2 85 0.9 CALM 0 0 0 0 1018.7 1017.8 0.0
18/04:30am 3.3 0.6 0.2 80 1.2 WNW 4 17 2 9 1018.3 1017.4 0.0
18/04:00am 3.9 1.7 0.9 81 1.2 WSW 2 9 1 5 1017.9 1017.0 0.0
18/03:30am 4.8 1.8 1.1 77 1.5 NE 6 9 3 5 1017.8 1016.8 0.0
18/03:00am 5.0 3.2 1.0 75 1.6 CALM 0 0 0 0 1017.7 1016.7 0.0
18/02:30am 7.0 5.3 2.0 70 2.1 CALM 0 0 0 0 1017.5 1016.5 0.0
18/02:00am 6.6 4.8 1.5 70 2.1 CALM 0 0 0 0 1017.5 1016.5 0.0
18/01:30am 6.7 5.0 1.9 71 2.0 CALM 0 0 0 0 1017.1 1016.2 0.0
18/01:00am 7.8 6.2 2.2 68 2.4 CALM 0 0 0 0 1017.3 1016.3 0.0
18/12:30am 10.7 8.8 0.8 50 4.2 CALM 0 0 0 0 1017.1 1016.2 0.0
18/12:00am 9.8 7.9 0.8 53 3.8 NW 0 0 0 0 1016.9 1016.0 0.0
 
Date/Time
EST
Temp
°C
App
Temp
°C
Dew
Point
Rel
Hum
%
Delta-T
°C
Wind Press
QNH
hPa
Press
MSL
hPa
Rain
since 9 am
mm
Dir
 
Spd
km/h
Gust
km/h
Spd
kts
Gust
kts
17/11:30pm 10.4 8.3 -0.9 45 4.6 CALM 0 0 0 0 1016.8 1015.9 0.0
17/11:00pm 8.7 7.0 1.9 62 2.9 CALM 0 0 0 0 1016.8 1015.9 0.0
17/10:30pm 11.9 10.1 1.3 48 4.6 CALM 0 0 0 0 1016.7 1015.8 0.0
17/10:00pm 11.9 9.1 2.2 51 4.3 WNW 6 7 3 4 1016.6 1015.7 0.0
17/09:30pm 12.8 11.2 2.3 49 4.7 CALM 0 0 0 0 1016.6 1015.7 0.0
17/09:00pm 13.4 10.8 3.4 50 4.6 W 6 7 3 4 1016.4 1015.5 0.0
17/08:30pm 13.8 10.9 2.6 46 5.1 WSW 7 11 4 6 1016.1 1015.2 0.0
17/08:00pm 13.9 12.2 3.8 50 4.7 W 2 7 1 4 1015.9 1014.9 0.0
17/07:30pm 15.8 12.9 2.6 41 6.1 W 7 11 4 6 1015.5 1014.5 0.0
17/07:00pm 16.2 12.9 2.6 40 6.3 W 9 13 5 7 1015.1 1014.1 0.0
17/06:30pm 16.4 13.1 2.6 39 6.4 W 9 15 5 8 1014.6 1013.7 0.0
17/06:00pm 17.4 13.1 0.8 32 7.5 WSW 13 20 7 11 1014.3 1013.4 0.0
17/05:30pm 19.5 14.2 -0.7 25 9.0 WSW 17 28 9 15 1013.9 1012.9 0.0
17/05:00pm 20.9 15.1 -1.3 22 9.9 WSW 19 30 10 16 1013.7 1012.7 0.0
17/04:30pm 21.9 15.9 -1.6 20 10.5 WSW 20 30 11 16 1013.2 1012.2 0.0
17/04:00pm 22.2 16.4 -0.2 22 10.3 W 20 32 11 17 1013.0 1012.0 0.0
17/03:30pm 22.8 16.4 0.7 23 10.4 W 24 39 13 21 1012.6 1011.7 0.0
17/03:00pm 22.6 16.7 1.7 25 10.0 W 22 33 12 18 1012.8 1011.8 0.0
17/02:30pm 23.4 17.8 1.5 23 10.5 W 20 39 11 21 1012.8 1011.8 0.0
17/02:00pm 22.6 16.6 1.0 24 10.2 W 22 33 12 18 1013.0 1012.0 0.0
17/01:30pm 22.9 17.2 0.5 22 10.5 WSW 20 33 11 18 1013.3 1012.3 0.0
17/01:00pm 23.1 17.5 1.3 23 10.4 W 20 41 11 22 1013.7 1012.7 0.0
17/12:30pm 22.0 16.0 1.2 25 9.8 WNW 22 35 12 19 1013.9 1012.9 0.0
17/12:00pm 21.7 16.1 1.0 25 9.7 W 20 30 11 16 1014.5 1013.6 0.0
17/11:30am 21.7 15.2 0.3 24 9.9 W 24 32 13 17 1014.9 1014.0 0.0
17/11:00am 21.2 14.7 0.0 24 9.7 W 24 37 13 20 1015.7 1014.7 0.0
17/10:30am 21.4 16.0 1.5 26 9.4 W 19 33 10 18 1016.1 1015.2 0.0
17/10:00am 20.2 14.9 1.6 29 8.7 WNW 19 28 10 15 1016.5 1015.6 0.0
17/09:30am 18.9 15.3 3.2 35 7.5 WNW 11 17 6 9 1016.8 1015.9 0.0
17/09:00am 18.7 15.0 2.6 34 7.6 WNW 11 20 6 11 1016.7 1015.8 -
17/08:30am 16.7 14.7 2.5 38 6.6 SSW 2 7 1 4 1016.6 1015.7 -
17/08:00am 13.5 12.1 3.8 52 4.5 CALM 0 0 0 0 1016.5 1015.6 -
17/07:30am 11.3 10.0 3.9 60 3.4 CALM 0 0 0 0 1016.3 1015.4 -
17/07:00am 8.2 6.8 3.4 72 2.1 CALM 0 0 0 0 1015.9 1014.9 -
17/06:30am 6.9 5.3 2.7 74 1.8 CALM 0 0 0 0 1015.4 1014.4 -
17/06:00am 6.1 4.6 3.1 81 1.3 CALM 0 0 0 0 1015.2 1014.2 -
17/05:30am 6.6 5.1 3.1 78 1.5 CALM 0 0 0 0 1014.7 1013.8 -
17/05:00am 6.4 4.5 2.9 78 1.5 SSE 2 9 1 5 1014.5 1013.6 -
17/04:30am 9.0 6.2 2.3 63 2.9 WNW 6 15 3 8 1014.2 1013.3 -
17/04:00am 13.4 9.9 1.1 43 5.4 NNW 9 17 5 9 1013.9 1012.9 -
17/03:30am 10.2 6.8 1.9 56 3.6 NNW 9 13 5 7 1013.6 1012.6 -
17/03:00am 13.7 10.9 3.0 48 4.9 WNW 7 13 4 7 1013.5 1012.5 0.0
17/02:30am 14.4 11.1 2.3 44 5.5 WNW 9 15 5 8 1013.3 1012.3 -
17/02:00am 14.2 11.2 2.0 43 5.5 WNW 7 11 4 6 1013.2 1012.2 -
17/01:30am 11.4 8.4 2.1 53 4.1 NW 7 9 4 5 1013.5 1012.5 -
17/01:00am 13.8 10.9 1.7 44 5.4 WNW 6 7 3 4 1013.7 1012.7 -
17/12:30am 15.0 11.7 2.6 43 5.7 WNW 9 11 5 6 1014.0 1013.0 -
17/12:00am 15.9 12.4 1.5 37 6.5 W 9 11 5 6 1014.1 1013.1 -
 
Date/Time
EST
Temp
°C
App
Temp
°C
Dew
Point
Rel
Hum
%
Delta-T
°C
Wind Press
QNH
hPa
Press
MSL
hPa
Rain
since 9 am
mm
Dir
 
Spd
km/h
Gust
km/h
Spd
kts
Gust
kts
16/11:30pm 17.1 12.8 0.9 33 7.3 W 13 17 7 9 1014.0 1013.0 -
16/11:00pm 17.8 13.8 0.8 32 7.7 WNW 11 17 6 9 1014.0 1013.0 -
16/10:30pm 16.9 13.7 3.1 39 6.5 NW 9 13 5 7 1014.0 1013.0 -
16/10:00pm 18.5 15.1 4.1 38 7.0 WNW 11 15 6 8 1013.9 1012.9 -
16/09:30pm 19.1 15.2 3.6 35 7.5 W 13 17 7 9 1013.8 1012.8 -
16/09:00pm 19.7 16.4 4.3 36 7.6 WNW 11 17 6 9 1013.6 1012.6 -
16/08:30pm 20.5 16.8 4.4 34 8.0 WNW 13 19 7 10 1013.5 1012.5 -
16/08:00pm 20.9 17.2 4.4 34 8.2 WNW 13 19 7 10 1013.2 1012.2 -
16/07:30pm 20.9 17.2 4.7 34 8.1 W 13 19 7 10 1012.8 1011.8 -
16/07:00pm 21.0 18.3 5.7 37 7.8 WNW 9 15 5 8 1012.4 1011.5 -
16/06:30pm 22.2 19.3 4.5 31 8.9 WNW 9 13 5 7 1012.0 1011.0 -
16/06:00pm 21.4 18.6 5.2 34 8.2 NW 9 15 5 8 1011.6 1010.6 -
16/05:30pm 23.9 20.2 4.7 28 9.8 WNW 13 20 7 11 1011.2 1010.2 -
16/05:00pm 25.4 20.7 3.3 24 11.1 W 17 32 9 17 1011.0 1010.0 -
16/04:30pm 25.4 19.3 2.7 23 11.3 WNW 24 37 13 20 1010.9 1009.9 -
16/04:00pm 25.8 19.3 2.8 22 11.5 W 26 41 14 22 1010.7 1009.7 -
16/03:30pm 26.3 20.6 3.1 22 11.7 WNW 22 35 12 19 1010.8 1009.8 -
16/02:30pm 25.6 19.8 4.4 25 10.9 NW 24 43 13 23 1011.1 1010.1 0.0
16/02:00pm 25.2 19.4 4.2 25 10.7 NNW 24 32 13 17 1011.5 1010.5 0.0
16/01:30pm 25.1 19.0 5.0 27 10.4 NW 26 43 14 23 1012.0 1011.0 0.0
16/01:00pm 26.1 22.0 6.1 28 10.6 WNW 17 24 9 13 1012.5 1011.6 0.0
16/12:30pm 25.2 20.8 6.6 30 9.9 WNW 19 30 10 16 1013.1 1012.1 0.0
16/12:00pm 24.9 20.8 6.4 30 9.8 WNW 17 32 9 17 1013.8 1012.8 0.0
16/11:30am 24.0 19.4 6.3 32 9.3 WNW 20 30 11 16 1014.5 1013.6 0.0
16/11:00am 23.8 19.8 6.5 33 9.1 NW 17 30 9 16 1015.2 1014.2 0.0
16/10:30am 21.8 16.3 5.8 35 8.2 NW 24 35 13 19 1015.8 1014.8 0.0
16/10:00am 21.5 16.6 6.7 38 7.7 NNW 22 33 12 18 1016.0 1015.0 0.0
16/09:30am 19.7 15.4 7.2 44 6.5 NNW 19 30 10 16 1016.4 1015.5 0.0
16/09:00am 18.5 14.2 7.0 47 5.9 WNW 19 28 10 15 1016.9 1016.0 0.0
16/08:30am 14.2 15.0 12.6 90 0.9 CALM 0 7 0 4 1017.1 1016.2 0.0
16/08:00am 12.8 13.1 12.3 97 0.3 S 2 7 1 4 1017.4 1016.4 0.0
16/07:30am 11.2 10.2 11.0 99 0.1 WSW 7 13 4 7 1017.3 1016.3 0.0
16/07:00am 10.6 9.6 10.4 99 0.1 SW 6 9 3 5 1016.8 1015.9 0.0
16/06:30am 10.5 10.7 10.5 100 0.0 CALM 0 0 0 0 1016.6 1015.7 0.0
16/06:00am 10.7 10.9 10.5 99 0.1 CALM 0 0 0 0 1016.4 1015.5 0.0
16/05:30am 10.9 11.2 10.9 100 0.0 CALM 0 0 0 0 1016.3 1015.4 0.0
16/05:00am 11.1 11.5 11.1 100 0.0 CALM 0 0 0 0 1016.2 1015.3 0.0
16/04:30am 11.5 11.9 11.3 99 0.1 CALM 0 0 0 0 1016.1 1015.2 0.0
16/04:00am 11.8 11.5 11.6 99 0.1 ENE 4 9 2 5 1016.1 1015.2 0.0
16/03:30am 11.7 11.4 11.5 99 0.1 ENE 4 7 2 4 1016.0 1015.0 0.0
16/03:00am 11.8 11.4 11.1 95 0.4 ENE 4 11 2 6 1016.0 1015.0 0.0
16/02:30am 11.8 12.0 10.7 93 0.6 CALM 0 0 0 0 1015.8 1014.8 0.0
16/02:00am 11.5 11.7 10.6 94 0.5 CALM 0 0 0 0 1016.0 1015.0 0.0
16/01:30am 12.1 12.4 10.8 92 0.7 CALM 0 0 0 0 1016.0 1015.0 0.0
16/01:00am 12.7 12.2 10.8 88 1.0 NNE 4 7 2 4 1016.0 1015.0 0.0
16/12:30am 11.9 11.2 10.2 89 0.9 N 4 7 2 4 1016.2 1015.3 0.0
16/12:00am 14.0 14.2 10.6 80 1.8 CALM 0 0 0 0 1016.4 1015.5 0.0
 
Date/Time
EST
Temp
°C
App
Temp
°C
Dew
Point
Rel
Hum
%
Delta-T
°C
Wind Press
QNH
hPa
Press
MSL
hPa
Rain
since 9 am
mm
Dir
 
Spd
km/h
Gust
km/h
Spd
kts
Gust
kts
15/11:30pm 13.6 13.7 10.2 80 1.8 CALM 0 0 0 0 1016.6 1015.7 0.0
15/11:00pm 13.6 13.5 9.6 77 2.1 CALM 0 0 0 0 1016.6 1015.7 0.0
15/10:30pm 15.3 14.9 9.9 70 2.9 E 2 7 1 4 1016.5 1015.6 0.0
15/10:00pm 15.4 14.7 10.0 70 2.9 NNE 4 9 2 5 1016.6 1015.7 0.0
15/09:30pm 15.0 13.8 10.3 73 2.5 S 7 13 4 7 1016.6 1015.7 0.0
15/09:00pm 14.1 13.1 10.2 77 2.1 SW 6 11 3 6 1016.3 1015.4 0.0
15/08:30pm 16.2 13.4 9.9 66 3.4 NNE 15 15 8 8 1016.0 1015.0 0.0
15/08:00pm 18.1 15.8 8.9 55 4.9 ENE 11 17 6 9 1015.8 1014.8 0.0
15/07:30pm 19.4 15.6 9.0 51 5.6 N 19 22 10 12 1015.5 1014.5 0.0
15/07:00pm 19.6 15.2 9.0 50 5.7 N 22 26 12 14 1015.3 1014.3 0.0
15/06:30pm 18.2 14.9 7.9 51 5.4 N 15 15 8 8 1014.8 1013.9 0.0
15/06:00pm 18.8 15.4 7.7 48 5.8 N 15 17 8 9 1014.6 1013.7 0.0
15/05:30pm 21.7 18.5 7.0 38 7.7 N 13 17 7 9 1014.3 1013.4 0.0
15/05:00pm 23.7 21.1 6.1 32 9.2 NNW 9 13 5 7 1014.1 1013.1 0.0
15/04:30pm 24.7 22.5 6.3 30 9.7 W 7 13 4 7 1014.0 1013.0 0.0
15/04:00pm 23.3 20.9 7.1 35 8.6 WNW 9 13 5 7 1014.0 1013.0 0.0

Other Formats:

Comma delimited format used in spreadsheet applications
http://www.bom.gov.au/fwo/IDQ60801/IDQ60801.94555.axf

JavaScript Object Notation format (JSON) in row-major order
http://www.bom.gov.au/fwo/IDQ60801/IDQ60801.94555.json